createdAt,value
2023-03-25T00:01:25.783Z,10.93
2023-03-25T00:03:55.802Z,14.95
2023-03-25T00:06:24.452Z,15.82
2023-03-25T00:08:52.972Z,18.60
2023-03-25T00:11:22.536Z,11.55
2023-03-25T00:13:51.325Z,10.60
2023-03-25T00:16:20.339Z,15.40
2023-03-25T00:18:50.057Z,17.02
2023-03-25T00:23:48.667Z,18.60
2023-03-25T00:26:17.280Z,14.77
2023-03-25T00:28:45.884Z,19.05
2023-03-25T00:31:16.126Z,20.77
2023-03-25T00:33:44.771Z,16.58
2023-03-25T00:36:14.997Z,13.82
2023-03-25T00:38:45.830Z,13.85
2023-03-25T00:41:23.443Z,16.05
2023-03-25T00:43:53.982Z,12.48
2023-03-25T00:46:23.393Z,18.50
2023-03-25T00:48:52.715Z,21.80
2023-03-25T00:51:22.577Z,16.92
2023-03-25T00:53:54.760Z,17.63
2023-03-25T00:56:24.430Z,14.57
2023-03-25T00:58:53.613Z,16.25
2023-03-25T01:01:27.451Z,19.63
2023-03-25T01:03:58.930Z,19.75
2023-03-25T01:06:30.083Z,20.52
2023-03-25T01:09:01.242Z,20.05
2023-03-25T01:11:34.789Z,15.57
2023-03-25T01:14:04.696Z,15.90
2023-03-25T01:16:33.766Z,20.02
2023-03-25T01:19:02.354Z,24.02
2023-03-25T01:21:33.971Z,19.13
2023-03-25T01:24:04.099Z,15.93
2023-03-25T01:26:32.745Z,15.32
2023-03-25T01:29:01.548Z,13.80
2023-03-25T01:31:30.715Z,12.97
2023-03-25T01:33:59.740Z,18.55
2023-03-25T01:36:29.780Z,12.55
2023-03-25T01:38:59.646Z,20.00
2023-03-25T01:41:42.253Z,19.52
2023-03-25T01:44:50.602Z,24.88
2023-03-25T01:47:19.388Z,16.17
2023-03-25T01:49:48.336Z,21.13
2023-03-25T01:52:21.414Z,16.65
2023-03-25T01:54:53.605Z,18.90
2023-03-25T01:57:26.059Z,15.73
2023-03-25T01:59:56.668Z,19.40
2023-03-25T02:02:36.840Z,16.20
2023-03-25T02:05:11.051Z,17.05
2023-03-25T02:07:46.817Z,15.32
2023-03-25T02:10:17.034Z,16.40
2023-03-25T02:12:47.260Z,17.13
2023-03-25T02:15:18.153Z,17.88
2023-03-25T02:18:09.355Z,18.20
2023-03-25T02:21:23.680Z,23.35
2023-03-25T02:24:19.821Z,24.40
2023-03-25T02:27:14.553Z,26.50
2023-03-25T02:30:17.246Z,17.25
2023-03-25T02:33:23.376Z,19.75
2023-03-25T02:36:14.234Z,15.25
2023-03-25T02:38:49.345Z,14.27
2023-03-25T02:41:24.122Z,12.02
2023-03-25T02:43:58.205Z,18.40
2023-03-25T02:46:29.379Z,16.33
2023-03-25T02:49:02.213Z,15.63
2023-03-25T02:51:34.399Z,16.35
2023-03-25T02:54:13.183Z,16.45
2023-03-25T02:56:44.857Z,15.82
2023-03-25T02:59:15.373Z,22.70
2023-03-25T03:01:45.763Z,14.02
2023-03-25T03:04:14.296Z,18.90
2023-03-25T03:06:44.973Z,19.13
2023-03-25T03:09:32.671Z,17.13
2023-03-25T03:12:20.999Z,22.90
2023-03-25T03:15:04.862Z,19.63
2023-03-25T03:17:41.914Z,22.00
2023-03-25T03:20:20.210Z,22.20
2023-03-25T03:22:54.281Z,24.33
2023-03-25T03:25:32.117Z,22.40
2023-03-25T03:28:07.341Z,17.35
2023-03-25T03:30:43.974Z,20.40
2023-03-25T03:33:22.086Z,15.10
2023-03-25T03:35:57.684Z,14.02
2023-03-25T03:38:29.133Z,15.93
2023-03-25T03:41:03.661Z,17.85
2023-03-25T03:43:36.509Z,20.13
2023-03-25T03:46:08.865Z,16.08
2023-03-25T03:48:42.947Z,20.42
2023-03-25T03:51:18.707Z,23.15
2023-03-25T03:53:51.833Z,13.05
2023-03-25T03:56:26.285Z,14.65
2023-03-25T03:58:59.721Z,20.77
2023-03-25T04:01:35.035Z,17.92
2023-03-25T04:04:07.728Z,16.75
2023-03-25T04:06:41.962Z,17.52
2023-03-25T04:09:18.719Z,28.38
2023-03-25T04:11:54.536Z,18.17
2023-03-25T04:14:23.459Z,19.52
2023-03-25T04:16:53.282Z,14.85
2023-03-25T04:19:21.892Z,23.23
2023-03-25T04:21:50.603Z,18.37
2023-03-25T04:24:19.898Z,21.42
2023-03-25T04:26:50.048Z,20.48
2023-03-25T04:29:19.164Z,16.98
2023-03-25T04:31:50.718Z,25.52
2023-03-25T04:34:20.737Z,22.67
2023-03-25T04:36:50.462Z,27.50
2023-03-25T04:41:54.605Z,20.90
2023-03-25T04:44:25.936Z,16.35
2023-03-25T04:46:56.165Z,16.70
2023-03-25T04:49:26.065Z,23.38
2023-03-25T04:51:57.105Z,19.42
2023-03-25T04:54:26.067Z,14.95
2023-03-25T04:56:56.708Z,19.88
2023-03-25T04:59:25.557Z,23.45
2023-03-25T05:01:54.283Z,18.93
2023-03-25T05:04:24.923Z,28.83
2023-03-25T05:06:53.635Z,22.60
2023-03-25T05:09:23.243Z,23.73
2023-03-25T05:11:53.399Z,23.33
2023-03-25T05:14:23.615Z,24.83
2023-03-25T05:16:53.440Z,22.02
2023-03-25T05:19:22.121Z,15.68
2023-03-25T05:21:51.327Z,21.10
2023-03-25T05:24:19.986Z,23.00
2023-03-25T05:26:48.652Z,14.87
2023-03-25T05:29:17.635Z,18.25
2023-03-25T05:31:48.756Z,14.45
2023-03-25T05:34:17.694Z,19.13
2023-03-25T05:36:46.443Z,16.45
2023-03-25T05:39:15.504Z,25.60
2023-03-25T05:41:45.914Z,18.92
2023-03-25T05:44:15.597Z,31.08
2023-03-25T05:49:14.219Z,23.67
2023-03-25T05:51:45.185Z,22.20
2023-03-25T05:54:13.936Z,15.25
2023-03-25T05:56:42.902Z,17.13
2023-03-25T05:59:11.632Z,23.15
2023-03-25T06:01:42.040Z,16.38
2023-03-25T06:04:13.144Z,17.52
2023-03-25T06:06:43.350Z,16.30
2023-03-25T06:09:12.144Z,19.48
2023-03-25T06:11:40.823Z,14.00
2023-03-25T06:14:09.364Z,15.15
2023-03-25T06:16:38.187Z,20.50
2023-03-25T06:19:09.667Z,15.75
2023-03-25T06:21:39.162Z,14.43
2023-03-25T06:24:09.932Z,20.45
2023-03-25T06:26:38.636Z,22.98
2023-03-25T06:29:08.694Z,13.32
2023-03-25T06:31:37.386Z,17.00
2023-03-25T06:34:05.930Z,16.70
2023-03-25T06:36:34.910Z,17.55
2023-03-25T06:39:05.343Z,13.15
2023-03-25T06:41:38.128Z,10.02
2023-03-25T06:44:24.431Z,19.08
2023-03-25T06:47:13.951Z,19.05
2023-03-25T06:49:47.583Z,21.67
2023-03-25T06:52:16.735Z,15.93
2023-03-25T06:54:45.477Z,22.70
2023-03-25T06:57:15.571Z,19.70
2023-03-25T06:59:44.326Z,21.75
2023-03-25T07:02:14.685Z,14.23
2023-03-25T07:04:43.773Z,12.82
2023-03-25T07:07:12.340Z,19.25
2023-03-25T07:09:41.144Z,16.27
2023-03-25T07:12:09.880Z,19.83
2023-03-25T07:14:40.016Z,12.50
2023-03-25T07:17:08.698Z,23.27
2023-03-25T07:19:37.445Z,15.20
2023-03-25T07:22:06.063Z,19.67
2023-03-25T07:24:34.709Z,16.08
2023-03-25T07:27:03.569Z,18.83
2023-03-25T07:29:35.365Z,14.82
2023-03-25T07:32:07.360Z,14.02
2023-03-25T07:34:36.321Z,16.77
2023-03-25T07:37:05.415Z,17.77
2023-03-25T07:39:34.138Z,12.18
2023-03-25T07:42:02.853Z,14.93
2023-03-25T07:44:50.597Z,14.82
2023-03-25T07:47:20.720Z,15.45
2023-03-25T07:49:50.283Z,19.65
2023-03-25T07:54:47.262Z,12.85
2023-03-25T07:57:15.825Z,13.77
2023-03-25T07:59:44.707Z,11.07
2023-03-25T08:02:15.130Z,14.98
2023-03-25T08:04:46.710Z,15.55
2023-03-25T08:07:17.691Z,11.15
2023-03-25T08:09:53.577Z,13.80
2023-03-25T08:12:23.719Z,11.82
2023-03-25T08:14:52.580Z,9.30
2023-03-25T08:17:21.124Z,12.85
2023-03-25T08:19:51.312Z,12.25
2023-03-25T08:22:19.984Z,14.70
2023-03-25T08:24:48.799Z,10.27
2023-03-25T08:27:17.370Z,9.87
2023-03-25T08:29:57.316Z,15.30
2023-03-25T08:32:27.420Z,15.32
2023-03-25T08:34:58.716Z,12.10
2023-03-25T08:37:27.351Z,10.82
2023-03-25T08:39:56.238Z,11.85
2023-03-25T08:42:24.946Z,11.85
2023-03-25T08:44:53.518Z,11.23
2023-03-25T08:47:22.087Z,12.13
2023-03-25T08:49:50.681Z,8.88
2023-03-25T08:52:20.750Z,8.88
2023-03-25T08:54:49.527Z,14.02
2023-03-25T08:57:18.109Z,12.25
2023-03-25T08:59:46.759Z,13.25
2023-03-25T09:02:15.660Z,11.70
2023-03-25T09:04:44.630Z,9.40
2023-03-25T09:07:13.207Z,12.00
2023-03-25T09:09:43.301Z,15.02
2023-03-25T09:12:11.909Z,11.45
2023-03-25T09:14:40.594Z,10.73
2023-03-25T09:17:11.003Z,13.10
2023-03-25T09:19:39.705Z,17.65
2023-03-25T09:22:09.122Z,10.17
2023-03-25T09:24:38.536Z,13.65
2023-03-25T09:27:08.955Z,9.07
2023-03-25T09:29:38.138Z,10.65
2023-03-25T09:32:07.343Z,11.02
2023-03-25T09:34:36.149Z,12.88
2023-03-25T09:37:04.879Z,9.98
2023-03-25T09:39:33.520Z,11.20
2023-03-25T09:42:36.951Z,10.45
2023-03-25T09:45:16.623Z,9.52
2023-03-25T09:47:56.620Z,11.90
2023-03-25T09:50:26.610Z,12.38
2023-03-25T09:53:00.153Z,10.18
2023-03-25T09:55:32.243Z,13.50
2023-03-25T09:58:06.512Z,9.25
2023-03-25T10:00:36.037Z,12.00
2023-03-25T10:06:05.353Z,12.13
2023-03-25T10:08:47.206Z,10.45
2023-03-25T10:11:25.877Z,11.43
2023-03-25T10:14:04.699Z,11.50
2023-03-25T10:16:43.505Z,10.38
2023-03-25T10:19:27.827Z,14.05
2023-03-25T10:22:01.994Z,9.98
2023-03-25T10:24:35.778Z,12.43
2023-03-25T10:27:07.698Z,13.73
2023-03-25T10:29:42.114Z,12.45
2023-03-25T10:32:17.412Z,9.68
2023-03-25T10:34:51.254Z,8.73
2023-03-25T10:37:28.894Z,7.53
2023-03-25T10:40:00.887Z,8.15
2023-03-25T10:42:36.952Z,11.07
2023-03-25T10:45:14.114Z,11.25
2023-03-25T10:47:45.156Z,12.68
2023-03-25T10:50:17.050Z,13.48
2023-03-25T10:52:46.802Z,15.38
2023-03-25T10:55:25.446Z,13.38
2023-03-25T10:57:55.680Z,10.47
2023-03-25T11:00:26.659Z,11.98
2023-03-25T11:02:57.220Z,11.88
2023-03-25T11:05:29.921Z,14.52
2023-03-25T11:08:14.709Z,14.15
2023-03-25T11:10:51.400Z,12.60
2023-03-25T11:13:22.343Z,9.75
2023-03-25T11:15:54.985Z,11.27
2023-03-25T11:18:29.876Z,11.30
2023-03-25T11:21:02.535Z,12.70
2023-03-25T11:23:34.851Z,9.77
2023-03-25T11:26:07.643Z,12.63
2023-03-25T11:28:40.464Z,15.50
2023-03-25T11:31:16.676Z,12.98
2023-03-25T11:33:47.675Z,17.20
2023-03-25T11:36:26.384Z,14.77
2023-03-25T11:38:59.800Z,11.40
2023-03-25T11:41:33.738Z,14.52
2023-03-25T11:44:04.146Z,19.13
2023-03-25T11:46:35.879Z,15.48
2023-03-25T11:49:12.159Z,8.45
2023-03-25T11:51:41.219Z,8.85
2023-03-25T11:54:13.711Z,11.98
2023-03-25T11:56:45.034Z,13.70
2023-03-25T11:59:23.332Z,11.23
2023-03-25T12:02:02.961Z,7.47
2023-03-25T12:04:32.571Z,12.50
2023-03-25T12:07:03.119Z,10.00
2023-03-25T12:09:33.637Z,12.23
2023-03-25T12:12:28.879Z,8.15
2023-03-25T12:15:08.823Z,13.65
2023-03-25T12:17:53.344Z,10.63
2023-03-25T12:20:28.356Z,12.38
2023-03-25T12:23:04.210Z,8.25
2023-03-25T12:25:54.798Z,10.40
2023-03-25T12:29:01.260Z,12.70
2023-03-25T12:31:38.733Z,8.02
2023-03-25T12:34:18.135Z,10.30
2023-03-25T12:39:44.399Z,6.50
2023-03-25T12:42:24.279Z,9.85
2023-03-25T12:45:07.703Z,9.55
2023-03-25T12:47:38.351Z,9.35
2023-03-25T12:50:22.541Z,11.35
2023-03-25T12:52:58.659Z,9.52
2023-03-25T12:55:44.286Z,10.45
2023-03-25T12:58:43.504Z,8.05
2023-03-25T13:01:19.843Z,7.18
2023-03-25T13:04:12.161Z,8.50
2023-03-25T13:06:46.286Z,11.27
2023-03-25T13:09:21.002Z,7.50
2023-03-25T13:11:54.208Z,9.35
2023-03-25T13:14:28.806Z,5.72
2023-03-25T13:17:01.694Z,7.75
2023-03-25T13:19:34.731Z,9.57
2023-03-25T13:22:08.765Z,9.07
2023-03-25T13:24:43.275Z,9.52
2023-03-25T13:27:14.253Z,7.55
2023-03-25T13:29:45.616Z,8.68
2023-03-25T13:32:24.734Z,8.32
2023-03-25T13:34:57.885Z,8.10
2023-03-25T13:37:32.968Z,9.50
2023-03-25T13:40:20.007Z,7.88
2023-03-25T13:42:54.178Z,9.63
2023-03-25T13:45:24.559Z,10.10
2023-03-25T13:48:01.483Z,11.98
2023-03-25T13:50:31.940Z,9.23
2023-03-25T13:53:07.585Z,7.57
2023-03-25T13:55:41.142Z,8.38
2023-03-25T13:58:48.047Z,10.07
2023-03-25T14:01:39.845Z,9.18
2023-03-25T14:04:40.094Z,6.93
2023-03-25T14:07:29.354Z,10.52
2023-03-25T14:10:25.891Z,9.18
2023-03-25T14:12:57.747Z,9.40
2023-03-25T14:15:31.284Z,11.48
2023-03-25T14:18:00.970Z,11.68
2023-03-25T14:20:34.562Z,8.68
2023-03-25T14:23:06.259Z,10.23
2023-03-25T14:25:41.007Z,20.00
2023-03-25T14:28:13.663Z,11.95
2023-03-25T14:30:43.228Z,8.75
2023-03-25T14:33:13.100Z,9.75
2023-03-25T14:35:51.448Z,9.52
2023-03-25T14:38:52.647Z,13.07
2023-03-25T14:42:00.415Z,6.93
2023-03-25T14:44:33.215Z,10.57
2023-03-25T14:47:32.237Z,8.43
2023-03-25T14:50:10.627Z,10.32
2023-03-25T14:52:42.761Z,9.85
2023-03-25T14:55:17.711Z,8.90
2023-03-25T14:57:50.755Z,12.25
2023-03-25T15:00:28.940Z,11.63
2023-03-25T15:03:04.272Z,13.23
2023-03-25T15:05:35.392Z,11.25
2023-03-25T15:08:15.459Z,9.85
2023-03-25T15:10:46.117Z,7.10
2023-03-25T15:13:21.717Z,10.85
2023-03-25T15:16:01.104Z,10.57
2023-03-25T15:21:24.434Z,10.85
2023-03-25T15:23:59.663Z,8.52
2023-03-25T15:26:31.745Z,10.68
2023-03-25T15:29:38.040Z,8.85
2023-03-25T15:32:24.918Z,6.10
2023-03-25T15:35:22.935Z,5.85
2023-03-25T15:38:12.380Z,12.43
2023-03-25T15:40:58.647Z,5.93
2023-03-25T15:43:59.531Z,7.80
2023-03-25T15:47:04.655Z,4.63
2023-03-25T15:49:57.664Z,3.72
2023-03-25T15:52:41.197Z,6.30
2023-03-25T15:55:13.215Z,7.57
2023-03-25T15:57:45.498Z,6.70
2023-03-25T16:00:20.806Z,3.30
2023-03-25T16:02:56.445Z,5.57
2023-03-25T16:05:25.881Z,6.82
2023-03-25T16:07:54.819Z,6.55
2023-03-25T16:10:31.233Z,6.03
2023-03-25T16:13:03.491Z,5.93
2023-03-25T16:15:34.654Z,6.55
2023-03-25T16:18:07.850Z,5.07
2023-03-25T16:20:37.657Z,3.83
2023-03-25T16:23:08.148Z,5.00
2023-03-25T16:25:38.949Z,5.28
2023-03-25T16:28:13.943Z,5.57
2023-03-25T16:30:44.252Z,4.47
2023-03-25T16:33:21.822Z,6.10
2023-03-25T16:35:54.551Z,6.13
2023-03-25T16:38:25.648Z,5.20
2023-03-25T16:41:00.543Z,5.25
2023-03-25T16:43:30.538Z,8.10
2023-03-25T16:46:01.932Z,6.47
2023-03-25T16:48:34.367Z,10.43
2023-03-25T16:51:09.774Z,7.30
2023-03-25T16:53:41.143Z,8.65
2023-03-25T16:56:24.706Z,12.05
2023-03-25T16:59:00.206Z,11.75
2023-03-25T17:01:30.283Z,11.05
2023-03-25T17:04:11.722Z,8.52
2023-03-25T17:06:45.662Z,10.43
2023-03-25T17:09:18.100Z,12.48
2023-03-25T17:11:48.304Z,10.57
2023-03-25T17:14:20.185Z,10.38
2023-03-25T17:16:52.661Z,12.30
2023-03-25T17:19:24.595Z,11.07
2023-03-25T17:22:17.276Z,10.68
2023-03-25T17:24:54.480Z,11.27
2023-03-25T17:27:27.949Z,11.25
2023-03-25T17:29:59.935Z,11.20
2023-03-25T17:32:28.551Z,13.48
2023-03-25T17:35:04.636Z,9.77
2023-03-25T17:37:34.140Z,14.02
2023-03-25T17:42:42.273Z,9.82
2023-03-25T17:45:15.586Z,13.25
2023-03-25T17:47:44.439Z,10.32
2023-03-25T17:50:18.807Z,12.52
2023-03-25T17:52:47.478Z,8.90
2023-03-25T17:55:16.617Z,13.40
2023-03-25T17:57:45.244Z,13.18
2023-03-25T18:00:18.626Z,11.40
2023-03-25T18:02:47.415Z,10.80
2023-03-25T18:05:18.576Z,11.73
2023-03-25T18:07:47.200Z,11.65
2023-03-25T18:10:18.773Z,10.20
2023-03-25T18:12:47.352Z,10.50
2023-03-25T18:15:16.029Z,9.93
2023-03-25T18:17:44.585Z,10.37
2023-03-25T18:20:19.825Z,10.80
2023-03-25T18:22:49.439Z,13.20
2023-03-25T18:25:18.125Z,9.68
2023-03-25T18:27:52.866Z,10.03
2023-03-25T18:30:25.853Z,10.52
2023-03-25T18:32:54.425Z,11.95
2023-03-25T18:35:28.508Z,9.30
2023-03-25T18:37:57.530Z,10.65
2023-03-25T18:40:28.640Z,11.20
2023-03-25T18:42:57.227Z,9.80
2023-03-25T18:45:26.839Z,14.73
2023-03-25T18:50:30.091Z,13.80
2023-03-25T18:52:59.256Z,14.18
2023-03-25T18:55:29.709Z,9.82
2023-03-25T18:57:59.108Z,11.18
2023-03-25T19:00:29.781Z,13.27
2023-03-25T19:02:59.466Z,9.40
2023-03-25T19:05:29.667Z,11.73
2023-03-25T19:07:59.913Z,13.73
2023-03-25T19:10:31.440Z,11.18
2023-03-25T19:13:00.750Z,10.82
2023-03-25T19:15:32.489Z,9.10
2023-03-25T19:18:02.086Z,15.18
2023-03-25T19:20:35.041Z,13.82
2023-03-25T19:23:05.290Z,13.93
2023-03-25T19:25:34.279Z,12.73
2023-03-25T19:28:02.798Z,21.92
2023-03-25T19:30:31.956Z,9.32
2023-03-25T19:33:02.245Z,12.30
2023-03-25T19:35:33.282Z,11.63
2023-03-25T19:38:03.428Z,11.48
2023-03-25T19:40:34.367Z,9.95
2023-03-25T19:43:05.383Z,12.70
2023-03-25T19:45:34.921Z,13.18
2023-03-25T19:50:34.841Z,12.57
2023-03-25T19:53:06.310Z,13.73
2023-03-25T19:55:35.363Z,13.05
2023-03-25T19:58:06.613Z,9.55
2023-03-25T20:00:35.329Z,10.50
2023-03-25T20:03:04.051Z,9.63
2023-03-25T20:05:36.142Z,14.17
2023-03-25T20:08:06.764Z,13.82
2023-03-25T20:10:35.398Z,10.80
2023-03-25T20:13:03.923Z,9.30
2023-03-25T20:15:32.479Z,7.80
2023-03-25T20:18:01.273Z,10.03
2023-03-25T20:20:29.895Z,8.70
2023-03-25T20:22:59.869Z,10.05
2023-03-25T20:25:28.530Z,10.30
2023-03-25T20:27:57.178Z,10.18
2023-03-25T20:30:26.061Z,10.23
2023-03-25T20:32:54.646Z,10.82
2023-03-25T20:35:23.281Z,11.63
2023-03-25T20:37:52.320Z,22.20
2023-03-25T20:40:33.825Z,28.95
2023-03-25T20:45:41.969Z,12.25
2023-03-25T20:48:10.854Z,16.23
2023-03-25T20:50:39.833Z,12.48
2023-03-25T20:53:09.103Z,11.50
2023-03-25T20:55:39.772Z,14.07
2023-03-25T20:58:11.562Z,14.65
2023-03-25T21:00:40.453Z,11.00
2023-03-25T21:03:09.305Z,10.15
2023-03-25T21:05:41.304Z,10.38
2023-03-25T21:08:09.819Z,14.18
2023-03-25T21:10:40.561Z,15.90
2023-03-25T21:13:09.092Z,12.95
2023-03-25T21:16:15.286Z,13.55
2023-03-25T21:19:38.516Z,17.88
2023-03-25T21:22:27.297Z,13.45
2023-03-25T21:24:56.127Z,18.35
2023-03-25T21:27:38.598Z,19.70
2023-03-25T21:30:10.507Z,15.18
2023-03-25T21:32:39.205Z,16.02
2023-03-25T21:35:09.142Z,16.30
2023-03-25T21:37:39.939Z,18.98
2023-03-25T21:40:11.656Z,14.68
2023-03-25T21:42:42.347Z,14.57
2023-03-25T21:45:13.634Z,14.75
2023-03-25T21:47:42.822Z,15.13
2023-03-25T21:50:13.738Z,18.88
2023-03-25T21:52:47.082Z,15.57
2023-03-25T21:55:16.540Z,17.45
2023-03-25T21:57:47.913Z,13.63
2023-03-25T22:00:19.653Z,12.13
2023-03-25T22:02:48.966Z,11.80
2023-03-25T22:05:19.450Z,14.10
2023-03-25T22:07:48.115Z,11.65
2023-03-25T22:10:16.573Z,12.23
2023-03-25T22:12:46.535Z,13.20
2023-03-25T22:15:15.144Z,11.32
2023-03-25T22:17:43.689Z,11.88
2023-03-25T22:20:13.673Z,11.10
2023-03-25T22:22:42.697Z,13.88
2023-03-25T22:25:11.660Z,13.93
2023-03-25T22:27:40.193Z,16.50
2023-03-25T22:30:11.735Z,14.93
2023-03-25T22:32:40.611Z,14.48
2023-03-25T22:35:14.241Z,16.42
2023-03-25T22:37:42.890Z,16.92
2023-03-25T22:40:13.057Z,15.93
2023-03-25T22:42:41.612Z,18.00
2023-03-25T22:45:12.736Z,21.23
2023-03-25T22:47:41.412Z,16.30
2023-03-25T22:50:11.425Z,13.57
2023-03-25T22:52:41.855Z,14.30
2023-03-25T22:55:11.640Z,11.73
2023-03-25T22:57:41.047Z,15.02
2023-03-25T23:00:14.913Z,12.48
2023-03-25T23:02:44.109Z,15.27
2023-03-25T23:05:14.944Z,12.30
2023-03-25T23:07:44.490Z,9.68
2023-03-25T23:10:13.977Z,10.80
2023-03-25T23:15:14.147Z,14.13
2023-03-25T23:17:42.817Z,15.30
2023-03-25T23:20:12.210Z,15.18
2023-03-25T23:22:40.872Z,12.55
2023-03-25T23:25:10.462Z,13.80
2023-03-25T23:30:09.519Z,10.95
2023-03-25T23:32:41.627Z,14.93
2023-03-25T23:35:11.052Z,15.95
2023-03-25T23:37:41.710Z,12.15
2023-03-25T23:40:15.072Z,12.82
2023-03-25T23:42:43.997Z,12.90
2023-03-25T23:45:13.289Z,14.40
2023-03-25T23:47:43.219Z,13.43
2023-03-25T23:50:18.132Z,10.50
2023-03-25T23:52:46.852Z,10.02
2023-03-25T23:55:18.004Z,12.77
2023-03-25T23:57:48.175Z,12.80
